createdAt,value
2023-01-25T00:00:35.544Z,1.81
2023-01-25T00:05:37.200Z,1.96
2023-01-25T00:10:38.808Z,1.91
2023-01-25T00:15:40.413Z,1.83
2023-01-25T00:20:42.012Z,1.97
2023-01-25T00:25:43.617Z,2.05
2023-01-25T00:30:45.203Z,2.09
2023-01-25T00:35:48.903Z,2.06
2023-01-25T00:40:50.564Z,2.05
2023-01-25T00:45:52.447Z,2.09
2023-01-25T00:50:54.068Z,2.05
2023-01-25T00:55:55.658Z,2.12
2023-01-25T01:00:57.639Z,1.95
2023-01-25T01:06:04.816Z,1.84
2023-01-25T01:11:10.531Z,1.73
2023-01-25T01:16:13.436Z,1.73
2023-01-25T01:21:15.223Z,1.88
2023-01-25T01:26:21.149Z,1.98
2023-01-25T01:31:24.237Z,1.99
2023-01-25T01:36:27.981Z,2.10
2023-01-25T01:41:29.644Z,1.99
2023-01-25T01:46:38.615Z,2.05
2023-01-25T01:51:58.219Z,1.99
2023-01-25T01:57:11.851Z,1.99
2023-01-25T02:02:14.973Z,2.00
2023-01-25T02:07:33.974Z,1.95
2023-01-25T02:12:37.858Z,2.01
2023-01-25T02:17:41.578Z,1.95
2023-01-25T02:23:07.720Z,2.01
2023-01-25T02:28:18.629Z,2.00
2023-01-25T02:33:23.740Z,1.96
2023-01-25T02:38:25.428Z,2.05
2023-01-25T02:43:32.813Z,1.94
2023-01-25T02:48:34.411Z,1.89
2023-01-25T02:53:36.565Z,1.62
2023-01-25T02:58:38.155Z,1.45
2023-01-25T03:03:40.173Z,1.46
2023-01-25T03:08:41.887Z,1.53
2023-01-25T03:13:43.949Z,1.58
2023-01-25T03:18:46.093Z,1.54
2023-01-25T03:23:54.183Z,1.44
2023-01-25T03:28:56.175Z,1.07
2023-01-25T03:33:57.811Z,0.93
2023-01-25T03:38:59.422Z,1.22
2023-01-25T03:44:01.068Z,1.38
2023-01-25T03:49:02.681Z,1.18
2023-01-25T03:54:04.519Z,1.26
2023-01-25T03:59:06.613Z,1.21
2023-01-25T04:04:08.209Z,1.26
2023-01-25T04:09:09.861Z,1.44
2023-01-25T04:14:11.784Z,1.43
2023-01-25T04:19:13.385Z,1.41
2023-01-25T04:24:14.970Z,1.61
2023-01-25T04:29:16.598Z,1.61
2023-01-25T04:34:18.259Z,1.41
2023-01-25T04:39:19.991Z,1.38
2023-01-25T04:44:21.586Z,1.19
2023-01-25T04:49:23.179Z,1.30
2023-01-25T04:54:24.775Z,1.49
2023-01-25T04:59:26.356Z,1.35
2023-01-25T05:04:27.964Z,1.34
2023-01-25T05:09:29.574Z,1.27
2023-01-25T05:14:31.160Z,1.29
2023-01-25T05:19:33.709Z,1.24
2023-01-25T05:24:36.098Z,1.48
2023-01-25T05:29:40.320Z,1.53
2023-01-25T05:34:42.816Z,1.51
2023-01-25T05:39:44.442Z,1.40
2023-01-25T05:44:47.636Z,1.00
2023-01-25T05:49:49.640Z,1.17
2023-01-25T05:54:51.269Z,1.41
2023-01-25T05:59:52.921Z,1.31
2023-01-25T06:04:54.497Z,1.29
2023-01-25T06:09:56.067Z,1.20
2023-01-25T06:14:57.687Z,1.30
2023-01-25T06:19:59.331Z,1.41
2023-01-25T06:25:00.931Z,1.18
2023-01-25T06:30:02.534Z,1.20
2023-01-25T06:35:04.378Z,1.27
2023-01-25T06:40:06.562Z,1.36
2023-01-25T06:45:09.054Z,1.41
2023-01-25T06:50:11.007Z,1.27
2023-01-25T06:55:14.084Z,1.25
2023-01-25T07:00:16.727Z,1.26
2023-01-25T07:05:18.335Z,1.38
2023-01-25T07:10:19.944Z,1.42
2023-01-25T07:15:21.551Z,1.26
2023-01-25T07:20:23.170Z,1.06
2023-01-25T07:25:24.779Z,1.05
2023-01-25T07:30:26.411Z,0.98
2023-01-25T07:35:28.008Z,1.00
2023-01-25T07:40:29.661Z,1.01
2023-01-25T07:45:31.383Z,1.00
2023-01-25T07:50:33.028Z,1.00
2023-01-25T07:55:35.140Z,1.04
2023-01-25T08:00:36.741Z,1.14
2023-01-25T08:05:44.018Z,1.25
2023-01-25T08:10:45.613Z,1.21
2023-01-25T08:15:54.759Z,1.11
2023-01-25T08:21:00.310Z,1.13
2023-01-25T08:26:06.531Z,1.12
2023-01-25T08:31:14.433Z,1.31
2023-01-25T08:36:18.334Z,1.07
2023-01-25T08:41:20.049Z,1.06
2023-01-25T08:46:23.379Z,0.96
2023-01-25T08:51:25.760Z,1.24
2023-01-25T08:56:27.374Z,1.46
2023-01-25T09:01:28.945Z,1.50
2023-01-25T09:06:30.865Z,1.55
2023-01-25T09:11:34.710Z,1.58
2023-01-25T09:16:36.410Z,1.58
2023-01-25T09:21:39.304Z,1.43
2023-01-25T09:26:45.970Z,1.47
2023-01-25T09:31:52.485Z,1.50
2023-01-25T09:36:54.167Z,1.44
2023-01-25T09:42:20.521Z,1.25
2023-01-25T09:47:50.773Z,1.13
2023-01-25T09:53:08.820Z,1.12
2023-01-25T09:58:20.459Z,1.04
2023-01-25T10:03:32.388Z,1.13
2023-01-25T10:08:55.674Z,1.31
2023-01-25T10:13:59.331Z,1.48
2023-01-25T10:19:26.898Z,1.34
2023-01-25T10:24:31.304Z,1.24
2023-01-25T10:29:36.654Z,1.28
2023-01-25T10:34:55.905Z,1.26
2023-01-25T10:40:06.806Z,1.14
2023-01-25T10:45:15.717Z,1.15
2023-01-25T10:50:43.538Z,1.28
2023-01-25T10:55:58.123Z,1.42
2023-01-25T11:01:00.399Z,1.38
2023-01-25T11:06:02.400Z,1.42
2023-01-25T11:11:23.480Z,1.45
2023-01-25T11:16:27.948Z,1.50
2023-01-25T11:21:32.699Z,1.46
2023-01-25T11:26:38.660Z,1.50
2023-01-25T11:31:46.228Z,1.50
2023-01-25T11:37:12.656Z,1.63
2023-01-25T11:42:32.332Z,1.63
2023-01-25T11:47:55.829Z,1.58
2023-01-25T11:53:30.887Z,1.45
2023-01-25T11:58:41.448Z,1.42
2023-01-25T12:04:01.303Z,1.47
2023-01-25T12:09:14.763Z,1.54
2023-01-25T12:14:44.209Z,1.47
2023-01-25T12:20:26.957Z,1.48
2023-01-25T12:25:33.208Z,1.67
2023-01-25T12:30:51.401Z,1.56
2023-01-25T12:36:11.748Z,1.04
2023-01-25T12:41:25.159Z,1.18
2023-01-25T12:46:32.491Z,1.49
2023-01-25T12:51:40.077Z,1.69
2023-01-25T12:56:53.008Z,1.69
2023-01-25T13:02:05.139Z,1.66
2023-01-25T13:07:13.450Z,1.53
2023-01-25T13:12:16.605Z,1.61
2023-01-25T13:17:38.360Z,1.50
2023-01-25T13:22:45.786Z,1.33
2023-01-25T13:27:48.474Z,1.38
2023-01-25T13:32:55.601Z,1.49
2023-01-25T13:38:29.342Z,1.44
2023-01-25T13:43:31.600Z,1.53
2023-01-25T13:48:38.240Z,1.59
2023-01-25T13:53:40.243Z,1.48
2023-01-25T13:58:50.747Z,1.43
2023-01-25T14:03:59.964Z,1.47
2023-01-25T14:09:13.830Z,1.41
2023-01-25T14:14:35.002Z,1.38
2023-01-25T14:19:39.849Z,1.31
2023-01-25T14:24:41.549Z,1.31
2023-01-25T14:29:49.089Z,1.32
2023-01-25T14:34:50.792Z,1.19
2023-01-25T14:39:52.506Z,1.16
2023-01-25T14:44:54.152Z,1.26
2023-01-25T14:49:55.816Z,1.25
2023-01-25T14:54:59.308Z,1.36
2023-01-25T15:00:04.945Z,1.23
2023-01-25T15:05:16.248Z,1.18
2023-01-25T15:10:23.993Z,1.10
2023-01-25T15:15:28.088Z,1.18
2023-01-25T15:20:41.736Z,1.21
2023-01-25T15:25:53.495Z,1.10
2023-01-25T15:30:57.883Z,1.04
2023-01-25T15:35:59.910Z,1.00
2023-01-25T15:41:02.688Z,1.13
2023-01-25T15:46:05.817Z,1.13
2023-01-25T15:51:08.464Z,1.18
2023-01-25T15:56:22.179Z,1.00
2023-01-25T16:01:27.393Z,0.85
2023-01-25T16:06:37.873Z,0.75
2023-01-25T16:11:39.473Z,0.77
2023-01-25T16:16:50.869Z,0.85
2023-01-25T16:21:52.649Z,0.74
2023-01-25T16:26:56.488Z,0.73
2023-01-25T16:31:58.281Z,0.75
2023-01-25T16:37:00.379Z,0.67
2023-01-25T16:42:02.008Z,0.47
2023-01-25T16:47:04.838Z,0.58
2023-01-25T16:52:06.664Z,0.63
2023-01-25T16:57:19.864Z,0.70
2023-01-25T17:02:22.226Z,0.76
2023-01-25T17:07:23.840Z,0.75
2023-01-25T17:12:26.088Z,0.73
2023-01-25T17:17:29.865Z,0.66
2023-01-25T17:22:37.420Z,0.70
2023-01-25T17:27:39.153Z,0.66
2023-01-25T17:32:41.057Z,0.66
2023-01-25T17:37:42.844Z,0.74
2023-01-25T17:42:44.453Z,0.77
2023-01-25T17:47:46.159Z,0.82
2023-01-25T17:52:48.666Z,0.85
2023-01-25T17:57:51.332Z,0.88
2023-01-25T18:02:53.889Z,0.93
2023-01-25T18:07:55.565Z,0.86
2023-01-25T18:13:04.665Z,0.84
2023-01-25T18:18:07.469Z,0.81
2023-01-25T18:23:09.062Z,0.81
2023-01-25T18:28:14.167Z,0.83
2023-01-25T18:33:15.807Z,0.88
2023-01-25T18:38:17.923Z,0.98
2023-01-25T18:43:20.243Z,1.02
2023-01-25T18:48:30.220Z,0.92
2023-01-25T18:53:33.744Z,0.77
2023-01-25T18:58:37.212Z,0.75
2023-01-25T19:03:38.818Z,0.68
2023-01-25T19:08:46.490Z,0.70
2023-01-25T19:13:49.387Z,0.69
2023-01-25T19:18:53.973Z,0.72
2023-01-25T19:23:57.348Z,0.65
2023-01-25T19:28:59.799Z,0.58
2023-01-25T19:34:04.632Z,0.47
2023-01-25T19:39:10.161Z,0.32
2023-01-25T19:44:13.951Z,0.44
2023-01-25T19:49:15.642Z,0.56
2023-01-25T19:54:17.929Z,0.53
2023-01-25T19:59:21.483Z,0.43
2023-01-25T20:04:24.124Z,0.50
2023-01-25T20:09:28.133Z,0.48
2023-01-25T20:14:29.937Z,0.47
2023-01-25T20:19:32.819Z,0.52
2023-01-25T20:24:35.416Z,0.49
2023-01-25T20:29:37.099Z,0.30
2023-01-25T20:34:38.728Z,0.43
2023-01-25T20:39:40.340Z,0.43
2023-01-25T20:44:42.017Z,0.51
2023-01-25T20:49:43.629Z,0.70
2023-01-25T20:54:45.230Z,0.77
2023-01-25T20:59:46.814Z,0.63
2023-01-25T21:04:48.393Z,0.54
2023-01-25T21:09:49.976Z,0.68
2023-01-25T21:14:51.819Z,0.60
2023-01-25T21:19:53.440Z,0.66
2023-01-25T21:24:55.040Z,0.67
2023-01-25T21:29:57.176Z,0.75
2023-01-25T21:34:59.093Z,0.73
2023-01-25T21:40:00.881Z,0.68
2023-01-25T21:45:21.695Z,0.62
2023-01-25T21:50:42.376Z,0.47
2023-01-25T21:55:43.939Z,0.56
2023-01-25T22:00:45.533Z,0.51
2023-01-25T22:05:54.189Z,0.39
2023-01-25T22:11:08.179Z,0.19
2023-01-25T22:16:10.747Z,0.30
2023-01-25T22:21:21.018Z,0.28
2023-01-25T22:26:24.939Z,0.17
2023-01-25T22:31:29.355Z,0.01
2023-01-25T22:36:31.347Z,0.02
2023-01-25T22:41:36.061Z,0.06
2023-01-25T22:46:37.796Z,-0.20
2023-01-25T22:51:39.413Z,-0.23
2023-01-25T22:56:41.028Z,-0.12
2023-01-25T23:01:42.819Z,0.12
2023-01-25T23:06:44.446Z,0.16
2023-01-25T23:11:46.044Z,0.20
2023-01-25T23:16:47.782Z,0.27
2023-01-25T23:21:49.347Z,0.32
2023-01-25T23:26:50.929Z,0.28
2023-01-25T23:31:52.555Z,0.27
2023-01-25T23:36:54.132Z,0.13
2023-01-25T23:41:55.721Z,0.03
2023-01-25T23:46:57.304Z,-0.02
2023-01-25T23:51:59.120Z,-0.04
2023-01-25T23:57:00.740Z,0.20
